Time;durP1;ratioP1;P1;durP2;ratioP2;P2;SDS_P1;SDS_P2;PMS_P1;PMS_P2;Temp;Humidity;BMP_temperature;BMP_pressure;BME280_temperature;BME280_humidity;BME280_pressure;Samples;Min_cycle;Max_cycle;Signal;HPM_P1;HPM_P2
2022/06/22 00:02:08;;;;;;;3.40;1.90;;;;;;;24.87;29.23;100859.63;5036568;28;20458;-89
2022/06/22 00:04:43;;;;;;;4.30;2.00;;;;;;;24.84;29.42;100853.59;5034100;28;20045;-88
2022/06/22 00:07:15;;;;;;;3.33;1.70;;;;;;;24.80;29.32;100852.25;5038191;28;20123;-90
2022/06/22 00:09:44;;;;;;;3.77;2.10;;;;;;;24.76;29.42;100853.72;5041457;28;20063;-90
2022/06/22 00:12:22;;;;;;;3.17;1.70;;;;;;;24.76;29.28;100845.41;5040072;28;20044;-89
2022/06/22 00:14:52;;;;;;;5.15;2.20;;;;;;;24.72;29.03;100844.03;5053584;28;20133;-90
2022/06/22 00:17:32;;;;;;;3.03;1.83;;;;;;;24.71;29.75;100842.34;5043382;28;20550;-90
2022/06/22 00:20:36;;;;;;;3.80;1.63;;;;;;;24.65;29.34;100833.72;5041108;28;20072;-90
2022/06/22 00:23:22;;;;;;;3.17;1.70;;;;;;;24.58;29.51;100832.78;4974419;28;20042;-90
2022/06/22 00:25:50;;;;;;;3.90;1.70;;;;;;;24.57;29.32;100839.38;5020385;28;20131;-90
2022/06/22 00:28:28;;;;;;;3.15;1.80;;;;;;;24.59;29.32;100837.28;5038811;28;20056;-90
2022/06/22 00:31:12;;;;;;;2.40;1.35;;;;;;;24.55;29.53;100841.50;5054672;28;20498;-89
2022/06/22 00:33:39;;;;;;;4.05;1.77;;;;;;;24.50;29.34;100840.34;5031306;28;20054;-90
2022/06/22 00:36:20;;;;;;;4.60;1.60;;;;;;;24.50;29.58;100845.91;5043245;28;20119;-90
2022/06/22 00:38:47;;;;;;;3.47;1.70;;;;;;;24.44;29.44;100836.44;5036651;28;20049;-89
2022/06/22 00:41:17;;;;;;;3.78;1.55;;;;;;;24.46;29.68;100839.03;5037429;28;20049;-89
2022/06/22 00:43:44;;;;;;;3.70;1.67;;;;;;;24.41;29.15;100842.38;5036343;28;20141;-89
2022/06/22 00:46:23;;;;;;;3.47;1.50;;;;;;;24.42;29.30;100846.00;5042343;28;20053;-88
2022/06/22 00:48:54;;;;;;;3.03;1.75;;;;;;;24.37;29.53;100846.59;5034840;28;20558;-87
2022/06/22 00:51:28;;;;;;;3.50;1.70;;;;;;;24.37;29.53;100846.59;5032843;28;20076;-88
2022/06/22 00:54:00;;;;;;;3.58;1.70;;;;;;;24.34;29.41;100835.88;5056939;28;20469;-89
2022/06/22 00:56:36;;;;;;;3.65;1.50;;;;;;;24.31;29.36;100839.03;5043025;28;20079;-89
2022/06/22 00:59:22;;;;;;;3.80;1.63;;;;;;;24.29;29.74;100826.41;5039092;28;20049;-89
2022/06/22 01:02:01;;;;;;;4.10;1.67;;;;;;;24.25;29.50;100831.47;5064381;28;20052;-89
2022/06/22 01:04:39;;;;;;;3.55;1.70;;;;;;;24.23;29.92;100828.88;5053170;28;20387;-88
2022/06/22 01:08:05;;;;;;;3.50;1.63;;;;;;;24.13;29.54;100827.44;5037563;28;20440;-89
2022/06/22 01:10:50;;;;;;;3.17;1.65;;;;;;;24.16;29.75;100821.50;5003209;28;20087;-90
2022/06/22 01:13:25;;;;;;;2.22;1.30;;;;;;;24.12;29.79;100807.16;5027907;28;20479;-90
2022/06/22 01:15:56;;;;;;;2.92;1.50;;;;;;;24.13;30.25;100800.53;5028611;28;20128;-89
2022/06/22 01:18:41;;;;;;;2.58;1.58;;;;;;;24.10;29.86;100800.06;5039685;28;20055;-89
2022/06/22 01:21:17;;;;;;;4.50;1.90;;;;;;;24.05;30.16;100808.13;5041281;28;20127;-89
2022/06/22 01:24:02;;;;;;;3.10;1.85;;;;;;;24.07;30.45;100819.88;5027248;28;20081;-89
2022/06/22 01:26:59;;;;;;;2.72;1.73;;;;;;;24.03;30.50;100811.09;5049089;28;20136;-89
2022/06/22 01:29:27;;;;;;;3.45;1.55;;;;;;;23.96;30.24;100810.13;5035502;28;20096;-89
2022/06/22 01:32:26;;;;;;;4.20;1.88;;;;;;;23.91;30.52;100812.59;5028812;28;20061;-89
2022/06/22 01:34:57;;;;;;;3.22;1.75;;;;;;;23.92;30.24;100817.09;5040646;28;20048;-89
2022/06/22 01:37:28;;;;;;;3.00;1.67;;;;;;;23.92;30.25;100807.91;5040516;28;20136;-88
2022/06/22 01:40:24;;;;;;;5.60;1.70;;;;;;;23.85;30.33;100802.28;5035577;28;20111;-90
2022/06/22 01:43:00;;;;;;;3.42;1.90;;;;;;;23.82;30.30;100786.84;5034915;28;20136;-90
2022/06/22 01:45:46;;;;;;;3.67;1.65;;;;;;;23.83;30.40;100784.94;5058136;28;20052;-90
2022/06/22 01:48:22;;;;;;;3.78;1.90;;;;;;;23.81;30.79;100778.72;5028462;28;20095;-90
2022/06/22 01:51:00;;;;;;;4.25;1.85;;;;;;;23.78;31.01;100785.53;5053621;28;20128;-89
2022/06/22 01:53:39;;;;;;;3.83;1.70;;;;;;;23.76;30.80;100790.41;5044313;28;20057;-90
2022/06/22 01:56:15;;;;;;;2.80;1.67;;;;;;;23.75;31.09;100788.66;5067680;28;20076;-90
2022/06/22 01:59:19;;;;;;;3.47;1.70;;;;;;;23.68;30.96;100784.94;5037621;28;20128;-90
2022/06/22 02:02:00;;;;;;;2.97;1.83;;;;;;;23.69;30.89;100785.81;5034760;28;20071;-89
2022/06/22 02:04:43;;;;;;;3.80;1.90;;;;;;;23.66;31.20;100781.50;5052475;28;20048;-90
2022/06/22 02:10:33;;;;;;;3.75;1.75;;;;;;;23.59;31.15;100776.91;5046424;28;20076;-90
2022/06/22 02:13:22;;;;;;;2.45;1.55;;;;;;;23.56;31.11;100788.34;5044611;28;20091;-90
2022/06/22 02:15:54;;;;;;;4.78;1.77;;;;;;;23.51;31.06;100789.78;5061843;28;20045;-90
2022/06/22 02:18:31;;;;;;;2.88;1.63;;;;;;;23.54;31.01;100801.56;5039648;28;20060;-89
2022/06/22 02:21:00;;;;;;;3.75;1.73;;;;;;;23.49;31.14;100804.88;5054780;28;20115;-89
2022/06/22 02:23:34;;;;;;;3.47;1.70;;;;;;;23.45;31.00;100809.91;5041041;28;20049;-89
2022/06/22 02:26:23;;;;;;;4.38;1.88;;;;;;;23.44;31.48;100822.03;5045241;28;20041;-89
2022/06/22 02:28:50;;;;;;;2.33;1.40;;;;;;;23.40;31.25;100817.03;5032322;28;20048;-89
2022/06/22 02:31:20;;;;;;;3.47;1.60;;;;;;;23.41;31.08;100816.88;5038310;28;20158;-88
2022/06/22 02:33:52;;;;;;;3.75;1.67;;;;;;;23.39;31.18;100809.81;5034559;28;20044;-89
2022/06/22 02:36:23;;;;;;;4.35;1.65;;;;;;;23.35;31.12;100803.75;5032466;28;20571;-89
2022/06/22 02:38:52;;;;;;;5.20;1.92;;;;;;;23.35;30.94;100795.44;5037689;28;20108;-89
2022/06/22 02:44:30;;;;;;;2.85;1.63;;;;;;;23.31;31.61;100785.78;5057097;28;20053;-90
2022/06/22 02:47:22;;;;;;;3.40;1.60;;;;;;;23.25;31.61;100783.75;5029996;28;20413;-90
2022/06/22 02:50:01;;;;;;;4.07;1.97;;;;;;;23.25;31.56;100783.75;5016024;28;20714;-90
2022/06/22 02:52:39;;;;;;;4.43;1.90;;;;;;;23.26;31.45;100787.38;5050828;28;20429;-89
2022/06/22 02:55:11;;;;;;;3.22;1.83;;;;;;;23.23;31.80;100798.84;5032559;28;20519;-89
2022/06/22 02:57:53;;;;;;;4.00;1.90;;;;;;;23.19;31.65;100801.13;5032639;28;20045;-89
2022/06/22 03:00:23;;;;;;;3.38;1.65;;;;;;;23.15;31.80;100806.16;5035918;28;20160;-89
2022/06/22 03:02:58;;;;;;;3.35;1.75;;;;;;;23.18;31.92;100809.63;5030505;28;20401;-89
2022/06/22 03:05:25;;;;;;;3.97;1.80;;;;;;;23.13;31.88;100796.34;5035744;28;20084;-89
2022/06/22 03:07:57;;;;;;;2.92;1.67;;;;;;;23.13;32.07;100783.34;5033696;28;20434;-89
2022/06/22 03:10:39;;;;;;;3.22;1.85;;;;;;;23.10;31.81;100772.63;5046512;28;20433;-89
2022/06/22 03:13:16;;;;;;;3.57;1.60;;;;;;;23.08;32.00;100771.09;5048687;28;20132;-89
2022/06/22 03:15:45;;;;;;;4.45;2.08;;;;;;;23.05;31.92;100775.13;5033141;28;20045;-89
2022/06/22 03:18:24;;;;;;;3.45;1.85;;;;;;;23.06;32.31;100767.66;5030021;28;20658;-89
2022/06/22 03:20:54;;;;;;;3.50;1.90;;;;;;;23.03;32.08;100771.66;5034369;28;20056;-90
2022/06/22 03:23:43;;;;;;;3.55;2.00;;;;;;;22.98;32.37;100768.56;5036916;28;20045;-91
2022/06/22 03:26:16;;;;;;;3.38;1.80;;;;;;;22.99;32.01;100772.19;5057743;28;20484;-90
2022/06/22 03:28:49;;;;;;;3.63;2.45;;;;;;;22.96;32.09;100762.38;5035870;28;20040;-90
2022/06/22 03:31:26;;;;;;;3.70;1.65;;;;;;;22.93;32.68;100765.50;5039944;28;20068;-90
2022/06/22 03:34:00;;;;;;;3.80;1.90;;;;;;;22.93;32.22;100765.50;5042870;28;20056;-89
2022/06/22 03:36:34;;;;;;;3.92;2.20;;;;;;;22.91;32.58;100764.81;5031572;28;20140;-89
2022/06/22 03:39:05;;;;;;;4.72;2.20;;;;;;;22.89;32.54;100761.41;5032078;28;20104;-89
2022/06/22 03:41:37;;;;;;;4.03;2.08;;;;;;;22.87;32.25;100755.19;5028111;28;20081;-88
2022/06/22 03:44:10;;;;;;;3.15;1.90;;;;;;;22.86;32.56;100747.91;5046729;28;20095;-88
2022/06/22 03:46:43;;;;;;;2.78;1.77;;;;;;;22.84;32.89;100751.91;5028688;28;20215;-88
2022/06/22 03:49:32;;;;;;;3.85;2.00;;;;;;;22.83;32.89;100742.72;5038583;28;20072;-88
2022/06/22 03:52:29;;;;;;;3.80;2.00;;;;;;;22.75;32.71;100756.63;5052860;28;20061;-88
2022/06/22 03:55:02;;;;;;;4.45;2.08;;;;;;;22.77;32.60;100757.31;5036458;28;20137;-89
2022/06/22 03:57:34;;;;;;;2.97;1.77;;;;;;;22.77;32.85;100763.72;5030098;28;20110;-89
2022/06/22 04:00:04;;;;;;;3.55;1.80;;;;;;;22.74;33.17;100761.31;5031642;28;20132;-89
2022/06/22 04:02:32;;;;;;;3.58;1.92;;;;;;;22.74;32.60;100761.31;5048812;28;20107;-88
2022/06/22 04:05:01;;;;;;;3.58;1.90;;;;;;;22.76;33.06;100766.66;5034055;28;20103;-88
2022/06/22 04:07:37;;;;;;;5.07;1.95;;;;;;;22.77;33.10;100771.16;5029242;28;20389;-88
2022/06/22 04:10:11;;;;;;;3.83;2.10;;;;;;;22.74;32.93;100771.50;5026416;28;20073;-88
2022/06/22 04:12:47;;;;;;;4.38;2.20;;;;;;;22.75;33.49;100774.09;5046932;28;20041;-88
2022/06/22 04:15:38;;;;;;;3.75;2.25;;;;;;;22.71;33.58;100782.94;5033317;28;20456;-88
2022/06/22 04:18:16;;;;;;;4.63;2.05;;;;;;;22.75;33.49;100787.09;5025553;28;20049;-88
2022/06/22 04:20:51;;;;;;;3.88;2.03;;;;;;;22.75;33.79;100781.53;5022499;28;20530;-88
2022/06/22 04:23:25;;;;;;;3.35;2.20;;;;;;;22.75;33.83;100785.19;5052864;28;20049;-88
2022/06/22 04:25:56;;;;;;;4.13;2.20;;;;;;;22.75;33.13;100789.84;5029847;28;20038;-88
2022/06/22 04:28:25;;;;;;;5.05;2.20;;;;;;;22.75;33.64;100785.19;5031024;28;20491;-88
2022/06/22 04:30:54;;;;;;;3.63;2.20;;;;;;;22.77;33.21;100782.22;5032809;28;20407;-88
2022/06/22 04:34:07;;;;;;;4.85;2.08;;;;;;;22.71;33.88;100785.72;5051031;28;20056;-88
2022/06/22 04:36:56;;;;;;;6.32;2.10;;;;;;;22.76;33.99;100797.13;4908308;29;20550;-88
2022/06/22 04:39:48;;;;;;;3.85;2.00;;;;;;;22.77;33.76;100801.59;5024176;28;20060;-88
2022/06/22 04:42:15;;;;;;;4.10;2.28;;;;;;;22.76;33.65;100800.75;5027752;28;20091;-88
2022/06/22 04:44:49;;;;;;;4.05;1.98;;;;;;;22.85;33.79;100795.16;5063171;28;20096;-89
2022/06/22 04:47:25;;;;;;;5.00;2.20;;;;;;;22.86;33.97;100805.19;5032114;28;20106;-89
2022/06/22 04:49:55;;;;;;;4.30;2.08;;;;;;;22.87;33.40;100812.44;5046307;28;20308;-90
2022/06/22 04:52:57;;;;;;;3.93;2.00;;;;;;;22.80;33.43;100806.78;5025851;28;20059;-90
2022/06/22 04:55:26;;;;;;;3.38;2.10;;;;;;;22.87;33.71;100796.69;5005192;28;20303;-88
2022/06/22 04:58:00;;;;;;;3.25;2.10;;;;;;;22.90;33.57;100801.84;5034486;28;20470;-90
2022/06/22 05:00:29;;;;;;;4.65;2.58;;;;;;;22.92;33.55;100809.97;5043155;28;20082;-89
2022/06/22 05:03:03;;;;;;;4.93;2.38;;;;;;;22.94;33.78;100806.00;5043628;28;20041;-91
2022/06/22 05:05:32;;;;;;;3.72;2.38;;;;;;;22.95;33.72;100809.63;5041141;28;20108;-91
2022/06/22 05:08:17;;;;;;;4.00;2.10;;;;;;;22.97;33.77;100807.53;5049553;28;20043;-90
2022/06/22 05:11:01;;;;;;;2.72;2.00;;;;;;;23.00;33.74;100818.22;5034422;28;20558;-88
2022/06/22 05:13:42;;;;;;;4.32;2.30;;;;;;;23.07;33.99;100816.44;5060344;28;20449;-87
2022/06/22 05:16:16;;;;;;;6.00;2.70;;;;;;;23.14;33.95;100818.28;5050834;28;20072;-89
2022/06/22 05:18:46;;;;;;;5.95;2.65;;;;;;;23.24;33.69;100822.72;5028713;28;20049;-90
2022/06/22 05:21:30;;;;;;;4.38;2.53;;;;;;;23.37;33.46;100828.53;5038532;28;20076;-89
2022/06/22 05:24:01;;;;;;;6.95;2.58;;;;;;;23.49;33.83;100824.28;5038524;28;20090;-87
2022/06/22 05:26:29;;;;;;;4.93;2.78;;;;;;;23.60;33.35;100812.75;5032773;28;20054;-89
2022/06/22 05:29:14;;;;;;;5.10;2.90;;;;;;;23.75;33.26;100813.63;5034515;28;20087;-88
2022/06/22 05:31:49;;;;;;;4.38;2.42;;;;;;;23.87;32.86;100814.91;5051846;28;20057;-87
2022/06/22 05:34:21;;;;;;;5.53;2.63;;;;;;;23.99;32.98;100814.41;5051926;28;20480;-88
2022/06/22 05:36:53;;;;;;;4.60;2.55;;;;;;;24.09;33.31;100828.88;5058861;28;20081;-88
2022/06/22 05:39:19;;;;;;;4.85;2.35;;;;;;;24.13;32.92;100822.72;5026072;28;20529;-87
2022/06/22 05:41:47;;;;;;;4.70;2.45;;;;;;;24.27;32.90;100821.91;5044430;28;20144;-90
2022/06/22 05:44:17;;;;;;;4.32;2.60;;;;;;;24.41;32.66;100820.16;5034152;28;20137;-89
2022/06/22 05:46:52;;;;;;;5.65;2.88;;;;;;;24.52;32.19;100814.13;5033005;28;20059;-88
2022/06/22 05:49:22;;;;;;;4.32;2.28;;;;;;;24.60;32.88;100810.38;5029675;28;20456;-87
2022/06/22 05:52:02;;;;;;;7.13;3.35;;;;;;;24.74;32.40;100820.59;5028254;28;20101;-88
2022/06/22 05:54:40;;;;;;;5.28;2.80;;;;;;;24.84;32.30;100818.38;5056764;28;20084;-87
2022/06/22 05:57:35;;;;;;;5.05;2.53;;;;;;;24.94;32.66;100818.94;5030208;28;20111;-89
2022/06/22 06:00:02;;;;;;;4.60;2.50;;;;;;;25.02;32.50;100829.06;5051424;28;20045;-89
2022/06/22 06:02:39;;;;;;;4.10;2.35;;;;;;;25.19;31.68;100826.91;5039826;28;20085;-90
2022/06/22 06:05:12;;;;;;;4.53;2.28;;;;;;;25.30;31.81;100831.91;5038362;28;20055;-87
2022/06/22 06:07:45;;;;;;;5.18;2.42;;;;;;;25.40;32.06;100840.78;5033022;28;20479;-85
2022/06/22 06:10:33;;;;;;;6.10;2.97;;;;;;;25.49;31.55;100836.81;5029898;28;20480;-90
2022/06/22 06:13:14;;;;;;;6.82;3.47;;;;;;;25.61;31.64;100831.59;5048470;28;20450;-88
2022/06/22 06:15:43;;;;;;;6.68;3.60;;;;;;;25.69;31.62;100850.94;5025597;28;20045;-85
2022/06/22 06:18:15;;;;;;;6.57;3.70;;;;;;;25.80;31.09;100836.44;5025102;28;20103;-87
2022/06/22 06:20:59;;;;;;;8.05;3.70;;;;;;;25.87;31.09;100836.50;5054675;28;20324;-90
2022/06/22 06:23:29;;;;;;;5.57;2.95;;;;;;;25.89;31.12;100826.91;5054002;28;20550;-90
2022/06/22 06:28:56;;;;;;;5.97;2.80;;;;;;;26.15;31.12;100831.78;5051945;28;20091;-84
2022/06/22 06:31:52;;;;;;;6.13;2.80;;;;;;;26.24;31.49;100826.91;5044039;28;20081;-90
2022/06/22 06:34:27;;;;;;;5.68;2.50;;;;;;;26.43;31.42;100837.34;5033848;28;20128;-90
2022/06/22 06:37:12;;;;;;;5.63;2.50;;;;;;;26.59;30.77;100823.06;5042872;28;20049;-87
2022/06/22 06:39:51;;;;;;;4.55;2.20;;;;;;;26.76;30.97;100816.06;5049506;28;20543;-82
2022/06/22 06:42:46;;;;;;;5.40;2.40;;;;;;;26.91;30.87;100818.72;5054399;28;20060;-82
2022/06/22 06:45:22;;;;;;;3.85;1.90;;;;;;;27.13;30.38;100824.97;5039595;28;20071;-83
2022/06/22 06:47:53;;;;;;;3.53;2.03;;;;;;;27.27;30.73;100819.19;5052044;28;20364;-82
2022/06/22 06:50:30;;;;;;;4.68;2.15;;;;;;;27.45;29.99;100818.56;5047833;28;20123;-85
2022/06/22 06:53:22;;;;;;;4.13;2.00;;;;;;;27.59;29.99;100825.91;5053120;28;20045;-80
2022/06/22 06:55:57;;;;;;;5.10;2.17;;;;;;;27.73;29.28;100812.84;5051196;28;20052;-80
2022/06/22 06:58:40;;;;;;;4.25;1.80;;;;;;;27.87;29.22;100816.47;5049018;28;20055;-81
2022/06/22 07:01:15;;;;;;;4.85;1.90;;;;;;;27.97;28.91;100808.50;5024974;28;20099;-82
2022/06/22 07:03:43;;;;;;;4.30;1.92;;;;;;;28.07;29.45;100814.50;5030505;28;20041;-88
2022/06/22 07:06:10;;;;;;;3.75;1.67;;;;;;;28.14;29.26;100812.56;5049817;28;20080;-81
2022/06/22 07:08:51;;;;;;;2.60;1.52;;;;;;;28.27;29.01;100806.97;5050477;28;20073;-79
2022/06/22 07:11:31;;;;;;;4.20;2.00;;;;;;;28.34;28.08;100806.94;5050521;28;20060;-85
2022/06/22 07:14:24;;;;;;;5.40;2.10;;;;;;;28.39;28.50;100802.44;5053984;28;20129;-82
2022/06/22 07:16:54;;;;;;;2.35;1.45;;;;;;;28.47;28.32;100800.47;5025626;28;20052;-83
2022/06/22 07:19:30;;;;;;;4.05;1.75;;;;;;;28.57;28.15;100795.28;5048391;28;20093;-81
2022/06/22 07:22:09;;;;;;;4.25;1.60;;;;;;;28.63;28.16;100794.38;5031161;28;20103;-81
2022/06/22 07:24:45;;;;;;;4.43;1.75;;;;;;;28.70;27.85;100809.16;5028760;28;20048;-83
2022/06/22 07:27:36;;;;;;;3.50;1.58;;;;;;;28.73;28.62;100806.78;5048961;28;20075;-83
2022/06/22 07:30:06;;;;;;;3.95;1.70;;;;;;;28.78;28.63;100806.16;5028452;28;20549;-82
2022/06/22 07:32:41;;;;;;;3.13;1.58;;;;;;;28.93;27.82;100784.34;5048807;28;20167;-80
2022/06/22 07:35:15;;;;;;;3.22;1.70;;;;;;;28.99;28.36;100788.19;5047044;28;20049;-80
2022/06/22 07:37:56;;;;;;;4.28;1.77;;;;;;;29.10;27.88;100781.88;5046404;28;20041;-80
2022/06/22 07:40:26;;;;;;;3.35;1.60;;;;;;;29.18;27.43;100786.34;5047283;28;20095;-79
2022/06/22 07:42:55;;;;;;;3.58;1.50;;;;;;;29.26;26.91;100792.50;5013198;28;20132;-81
2022/06/22 07:45:24;;;;;;;3.05;1.40;;;;;;;29.31;27.06;100798.31;5023493;28;20055;-83
2022/06/22 07:48:04;;;;;;;2.53;1.30;;;;;;;29.41;26.45;100804.25;5054342;28;20134;-87
2022/06/22 07:50:48;;;;;;;3.22;1.40;;;;;;;29.45;26.41;100804.69;5049618;28;20151;-86
2022/06/22 07:53:27;;;;;;;2.65;1.40;;;;;;;29.47;26.55;100808.97;5028123;28;20488;-84
2022/06/22 07:56:30;;;;;;;3.03;1.50;;;;;;;29.52;26.53;100809.13;5031165;28;20147;-86
2022/06/22 07:59:05;;;;;;;1.85;1.40;;;;;;;29.62;26.31;100813.34;5048778;28;20139;-84
2022/06/22 08:01:38;;;;;;;2.78;1.48;;;;;;;29.69;25.78;100811.34;5028370;28;20053;-84
2022/06/22 08:04:25;;;;;;;2.97;1.70;;;;;;;29.74;25.82;100805.91;5031769;28;20052;-83
2022/06/22 08:07:12;;;;;;;3.35;1.58;;;;;;;29.76;26.25;100804.59;5049615;28;20052;-81
2022/06/22 08:09:51;;;;;;;6.47;2.80;;;;;;;29.87;25.51;100809.47;5007442;28;20094;-84
2022/06/22 08:12:30;;;;;;;5.03;1.77;;;;;;;29.95;25.47;100810.28;5028896;28;20063;-82
2022/06/22 08:15:01;;;;;;;3.80;1.70;;;;;;;30.00;26.13;100818.84;5022269;28;20132;-84
2022/06/22 08:17:31;;;;;;;3.08;1.48;;;;;;;30.08;25.96;100812.94;5047057;28;20446;-85
2022/06/22 08:19:57;;;;;;;2.97;1.70;;;;;;;30.11;25.84;100816.16;5023790;28;20068;-82
2022/06/22 08:22:24;;;;;;;2.83;1.52;;;;;;;30.18;25.38;100807.66;5047856;28;20135;-82
2022/06/22 08:24:55;;;;;;;3.70;1.63;;;;;;;30.24;24.92;100799.19;5030635;28;20122;-80
2022/06/22 08:27:25;;;;;;;3.00;1.50;;;;;;;30.29;24.86;100804.09;5047524;28;20053;-83
2022/06/22 08:29:53;;;;;;;2.97;1.52;;;;;;;30.32;25.29;100799.97;5014454;28;20145;-81
2022/06/22 08:32:31;;;;;;;3.63;1.80;;;;;;;30.38;24.67;100799.91;5042498;28;20178;-85
2022/06/22 08:35:23;;;;;;;3.45;1.50;;;;;;;30.41;24.46;100802.22;5030530;28;20130;-86
2022/06/22 08:38:27;;;;;;;3.78;1.77;;;;;;;30.42;24.69;100798.34;5036864;28;20322;-84
2022/06/22 08:41:17;;;;;;;3.95;1.90;;;;;;;30.45;24.63;100802.63;5047461;28;20076;-87
2022/06/22 08:44:02;;;;;;;3.92;1.65;;;;;;;30.47;24.54;100798.47;5037191;28;20135;-83
2022/06/22 08:46:47;;;;;;;2.70;1.65;;;;;;;30.49;24.64;100801.06;5031645;28;20046;-85
2022/06/22 08:49:59;;;;;;;2.60;1.52;;;;;;;30.50;24.44;100806.44;5037168;28;20041;-84
2022/06/22 08:52:54;;;;;;;3.80;1.58;;;;;;;30.60;24.54;100800.31;5032527;28;20057;-85
2022/06/22 08:55:51;;;;;;;2.42;1.42;;;;;;;30.63;24.51;100792.31;5046206;28;20527;-85
2022/06/22 08:58:38;;;;;;;2.78;1.50;;;;;;;30.71;23.95;100799.53;5033426;28;20052;-83
2022/06/22 09:01:29;;;;;;;2.72;1.63;;;;;;;30.74;24.12;100792.56;5047060;28;20057;-83
2022/06/22 09:04:19;;;;;;;3.03;1.50;;;;;;;30.74;24.67;100796.22;5032495;28;20113;-84
2022/06/22 09:07:24;;;;;;;4.72;1.60;;;;;;;30.85;24.36;100797.38;5009902;28;20543;-86
2022/06/22 09:10:12;;;;;;;2.80;1.50;;;;;;;30.90;24.54;100800.31;5005021;28;20472;-85
2022/06/22 09:12:59;;;;;;;2.80;1.45;;;;;;;30.96;24.57;100803.06;5006423;28;20045;-86
2022/06/22 09:15:35;;;;;;;2.83;1.50;;;;;;;31.06;24.16;100810.03;4989464;28;20055;-84
2022/06/22 09:18:26;;;;;;;2.70;1.55;;;;;;;31.18;23.76;100813.78;5021120;28;20045;-86
2022/06/22 09:21:08;;;;;;;2.97;1.60;;;;;;;31.19;24.14;100812.69;5026496;28;20072;-85
2022/06/22 09:23:51;;;;;;;3.75;1.60;;;;;;;31.30;23.92;100814.66;5027638;28;20059;-85
2022/06/22 09:26:27;;;;;;;3.42;1.60;;;;;;;31.40;23.63;100812.13;5028894;28;20049;-86
2022/06/22 09:29:01;;;;;;;3.05;1.80;;;;;;;31.48;23.96;100814.56;5032468;28;20041;-85
2022/06/22 09:32:05;;;;;;;2.47;1.50;;;;;;;31.54;23.70;100810.84;5047669;28;20077;-85
2022/06/22 09:34:53;;;;;;;3.45;1.65;;;;;;;31.62;23.25;100816.13;5032341;28;20041;-88
2022/06/22 09:37:37;;;;;;;3.22;1.48;;;;;;;31.69;23.36;100808.44;5032407;28;20053;-86
2022/06/22 09:40:40;;;;;;;2.97;1.63;;;;;;;31.74;23.45;100805.75;5030872;28;20559;-84
2022/06/22 09:43:07;;;;;;;3.28;1.50;;;;;;;31.77;23.12;100796.00;5010728;28;20045;-84
2022/06/22 09:45:55;;;;;;;2.92;1.80;;;;;;;31.87;23.21;100803.81;5032595;28;20140;-86
2022/06/22 09:49:03;;;;;;;3.83;1.73;;;;;;;31.89;23.10;100793.16;5059290;28;20073;-84
2022/06/22 09:52:11;;;;;;;3.13;1.60;;;;;;;31.94;22.71;100796.97;5051352;28;20480;-81
2022/06/22 09:58:04;;;;;;;3.28;1.70;;;;;;;32.01;22.59;100794.91;5048912;28;20049;-82
2022/06/22 10:00:42;;;;;;;2.83;1.60;;;;;;;32.07;22.13;100795.88;5055204;28;20064;-80
2022/06/22 10:03:48;;;;;;;3.50;1.60;;;;;;;32.04;22.11;100785.09;5048772;28;20489;-78
2022/06/22 10:06:21;;;;;;;3.30;1.67;;;;;;;32.10;22.40;100784.16;5050719;28;20076;-80
2022/06/22 10:09:06;;;;;;;2.28;1.30;;;;;;;32.10;22.70;100786.97;5036846;28;20049;-79
2022/06/22 10:11:40;;;;;;;1.98;1.38;;;;;;;32.16;22.76;100793.56;5015767;28;20049;-81
2022/06/22 10:14:12;;;;;;;3.33;1.67;;;;;;;32.21;22.67;100788.91;5007055;28;20404;-79
2022/06/22 10:16:46;;;;;;;2.88;1.63;;;;;;;32.31;21.54;100786.34;5014074;28;20484;-80
2022/06/22 10:19:32;;;;;;;3.33;1.70;;;;;;;32.36;21.79;100788.41;5022371;28;20041;-77
2022/06/22 10:22:08;;;;;;;4.43;1.98;;;;;;;32.40;21.95;100778.38;5039825;28;20111;-78
2022/06/22 10:24:47;;;;;;;2.80;1.70;;;;;;;32.41;22.37;100771.66;5023265;28;20101;-80
2022/06/22 10:27:46;;;;;;;3.63;1.63;;;;;;;32.44;22.32;100766.41;5010025;28;20050;-79
2022/06/22 10:30:22;;;;;;;2.78;1.50;;;;;;;32.58;21.81;100755.72;4997930;28;20576;-82
2022/06/22 10:32:58;;;;;;;3.22;1.70;;;;;;;32.61;21.64;100758.03;5022281;28;20099;-79
2022/06/22 10:35:25;;;;;;;2.90;1.65;;;;;;;32.66;21.44;100752.50;5030573;28;20049;-79
2022/06/22 10:38:08;;;;;;;4.05;1.63;;;;;;;32.73;20.86;100752.41;5023653;28;20269;-78
2022/06/22 10:47:16;;;;;;;1.92;1.42;;;;;;;32.78;20.74;100749.69;5026365;28;20088;-79
2022/06/22 10:49:42;;;;;;;2.42;1.77;;;;;;;32.75;21.22;100747.38;5021258;28;20449;-80
2022/06/22 10:52:21;;;;;;;4.40;1.67;;;;;;;32.79;21.10;100749.41;5034980;28;20463;-81
2022/06/22 10:55:23;;;;;;;3.17;1.90;;;;;;;32.81;20.44;100755.66;5010781;28;20052;-82
2022/06/22 10:58:32;;;;;;;2.25;1.40;;;;;;;32.81;21.11;100749.19;5013382;28;20044;-80
2022/06/22 11:01:23;;;;;;;2.92;1.75;;;;;;;32.85;21.22;100748.44;5012329;28;20054;-81
2022/06/22 11:04:11;;;;;;;2.70;1.70;;;;;;;32.92;20.32;100755.88;5026868;28;20582;-80
2022/06/22 11:07:17;;;;;;;2.60;1.70;;;;;;;32.88;20.62;100764.78;5025795;28;20092;-82
2022/06/22 11:09:52;;;;;;;3.10;1.50;;;;;;;32.95;20.63;100752.53;5031602;28;20083;-83
2022/06/22 11:12:52;;;;;;;3.55;1.50;;;;;;;32.96;20.53;100768.31;5026848;28;20053;-83
2022/06/22 11:15:46;;;;;;;3.33;1.50;;;;;;;33.00;20.15;100761.09;5028526;28;20053;-82
2022/06/22 11:18:57;;;;;;;2.35;1.48;;;;;;;32.96;20.48;100763.53;5027085;28;20045;-83
2022/06/22 11:21:58;;;;;;;2.20;1.50;;;;;;;33.03;20.19;100769.00;5022814;28;20056;-81
2022/06/22 11:24:52;;;;;;;2.50;1.33;;;;;;;33.05;19.69;100762.03;5024447;28;20045;-80
2022/06/22 11:30:56;;;;;;;3.00;1.67;;;;;;;33.07;19.74;100750.53;5026894;28;20221;-82
2022/06/22 11:33:42;;;;;;;3.17;1.67;;;;;;;33.10;20.14;100755.66;5015357;28;20083;-82
2022/06/22 11:36:24;;;;;;;2.78;1.38;;;;;;;33.18;20.08;100750.47;5005546;28;20132;-81
2022/06/22 11:39:09;;;;;;;;;;;;;;;32.90;20.92;100758.91;5032960;28;20045;-83
2022/06/22 11:41:45;;;;;;;3.33;1.40;;;;;;;33.27;19.45;100769.78;5027284;28;19927;-82
2022/06/22 11:48:03;;;;;;;3.92;1.70;;;;;;;33.36;18.58;100759.78;5045922;28;20503;-83
2022/06/22 11:51:02;;;;;;;2.30;1.40;;;;;;;33.36;19.03;100766.25;5027547;28;20126;-83
2022/06/22 11:54:06;;;;;;;3.38;1.55;;;;;;;33.39;19.13;100767.72;5026989;28;20057;-80
2022/06/22 11:56:36;;;;;;;3.20;1.42;;;;;;;33.43;18.59;100778.25;5048894;28;20391;-80
2022/06/22 11:59:40;;;;;;;2.53;1.42;;;;;;;33.44;18.47;100771.47;5048118;28;20407;-80
2022/06/22 12:02:27;;;;;;;2.58;1.38;;;;;;;33.43;18.96;100769.78;5050477;28;20059;-81
2022/06/22 12:05:06;;;;;;;2.33;1.40;;;;;;;33.49;18.38;100780.03;5052479;28;20118;-81
2022/06/22 12:07:36;;;;;;;3.30;1.40;;;;;;;33.51;18.40;100766.56;5040493;28;20069;-82
2022/06/22 12:10:17;;;;;;;2.13;1.20;;;;;;;33.53;18.79;100771.91;5019798;28;20535;-82
2022/06/22 12:13:06;;;;;;;3.05;1.40;;;;;;;33.56;18.22;100766.63;5013397;28;20041;-83
2022/06/22 12:16:08;;;;;;;3.63;1.52;;;;;;;33.53;18.23;100767.13;5011197;28;20281;-81
2022/06/22 12:18:48;;;;;;;2.50;1.58;;;;;;;33.56;18.43;100752.56;4972625;28;20504;-82
2022/06/22 12:21:39;;;;;;;2.97;1.48;;;;;;;33.66;17.93;100759.47;4986950;28;20198;-80
2022/06/22 12:24:17;;;;;;;3.08;1.20;;;;;;;33.68;18.14;100752.47;4983871;28;20051;-80
2022/06/22 12:26:54;;;;;;;2.90;1.40;;;;;;;33.69;17.71;100758.94;4977564;28;20073;-80
2022/06/22 12:29:42;;;;;;;3.60;1.73;;;;;;;33.68;18.03;100748.81;4978652;28;20096;-81
2022/06/22 12:32:17;;;;;;;5.28;2.53;;;;;;;33.73;18.00;100754.53;4979914;28;20130;-81
2022/06/22 12:35:11;;;;;;;3.05;1.80;;;;;;;33.75;17.75;100743.88;4986773;28;20497;-82
2022/06/22 12:37:47;;;;;;;2.50;1.48;;;;;;;33.75;17.56;100747.53;4966829;28;20528;-81
2022/06/22 12:40:23;;;;;;;2.13;1.25;;;;;;;33.77;17.27;100738.84;4987066;28;20046;-79
2022/06/22 12:43:02;;;;;;;3.05;1.50;;;;;;;33.76;17.22;100735.19;4981217;28;20051;-81
2022/06/22 12:45:41;;;;;;;2.10;1.30;;;;;;;33.73;17.60;100737.63;4988270;28;20485;-81
2022/06/22 12:48:17;;;;;;;2.90;1.40;;;;;;;33.75;17.45;100733.47;4979095;28;20078;-80
2022/06/22 12:50:58;;;;;;;2.80;1.50;;;;;;;33.81;16.69;100734.38;4983052;28;20051;-80